Time;durP1;ratioP1;P1;durP2;ratioP2;P2;SDS_P1;SDS_P2;PMS_P1;PMS_P2;Temp;Humidity;BMP_temperature;BMP_pressure;BME280_temperature;BME280_humidity;BME280_pressure;Samples;Min_cycle;Max_cycle;Signal;HPM_P1;HPM_P2
2021/01/01 00:01:46;;;;;;;36.10;18.30;;;;;;;1.14;75.21;98137.69;2175344;82;21118;-77
2021/01/01 00:04:47;;;;;;;32.47;16.37;;;;;;;1.11;75.25;98144.41;2175816;82;21138;-77
2021/01/01 00:07:51;;;;;;;38.80;16.63;;;;;;;1.13;75.04;98142.36;2175681;82;21189;-77
2021/01/01 00:10:52;;;;;;;39.27;15.97;;;;;;;1.13;75.10;98136.34;2176148;82;21400;-78
2021/01/01 00:13:53;;;;;;;26.87;14.20;;;;;;;1.17;75.29;98135.23;2175857;82;21082;-77
2021/01/01 00:16:54;;;;;;;36.47;15.93;;;;;;;1.06;74.55;98140.79;2175948;82;21101;-79
2021/01/01 00:19:55;;;;;;;28.53;14.90;;;;;;;1.00;74.73;98144.41;2175884;82;21103;-77
2021/01/01 00:22:56;;;;;;;30.47;15.13;;;;;;;1.04;74.75;98148.85;2176053;82;21332;-78
2021/01/01 00:25:58;;;;;;;31.97;15.70;;;;;;;1.00;74.63;98146.98;2183937;81;21154;-77
2021/01/01 00:28:59;;;;;;;31.53;14.83;;;;;;;0.98;74.62;98147.33;2175774;82;21181;-77
2021/01/01 00:32:00;;;;;;;27.40;14.30;;;;;;;1.01;74.56;98147.45;2175708;82;21380;-77
2021/01/01 00:35:01;;;;;;;35.53;16.80;;;;;;;0.99;74.63;98147.39;2175546;82;21118;-77
2021/01/01 00:38:02;;;;;;;34.10;17.67;;;;;;;1.01;74.87;98148.73;2175469;82;21118;-76
2021/01/01 00:41:03;;;;;;;30.77;15.53;;;;;;;1.03;74.87;98153.11;2175624;82;21466;-77
2021/01/01 00:44:04;;;;;;;27.63;14.43;;;;;;;1.02;74.85;98149.20;2175649;82;21138;-77
2021/01/01 00:47:05;;;;;;;33.00;15.67;;;;;;;0.98;74.76;98151.19;2175494;82;21158;-77
2021/01/01 00:50:06;;;;;;;31.83;15.87;;;;;;;0.91;74.95;98153.94;2175604;82;21090;-76
2021/01/01 00:53:10;;;;;;;29.57;16.03;;;;;;;0.91;75.04;98152.23;2175509;82;21122;-77
2021/01/01 00:56:11;;;;;;;38.23;17.00;;;;;;;0.89;74.74;98157.73;2175671;82;21152;-77
2021/01/01 00:59:12;;;;;;;31.77;17.00;;;;;;;0.74;74.71;98159.67;2176071;82;21114;-77
2021/01/01 01:02:13;;;;;;;25.03;14.70;;;;;;;0.74;75.00;98159.67;2175763;82;21435;-77
2021/01/01 01:05:14;;;;;;;35.70;15.20;;;;;;;0.69;74.67;98157.33;2175610;82;21135;-77
2021/01/01 01:08:15;;;;;;;36.93;15.47;;;;;;;0.67;75.01;98159.38;2175646;82;21438;-77
2021/01/01 01:11:16;;;;;;;30.63;15.17;;;;;;;0.69;75.36;98160.31;2175607;82;21090;-77
2021/01/01 01:14:18;;;;;;;25.10;14.50;;;;;;;0.72;75.39;98160.43;2175486;82;21088;-78
2021/01/01 01:17:21;;;;;;;39.33;15.77;;;;;;;0.77;75.38;98162.36;2175444;82;21138;-76
2021/01/01 01:20:22;;;;;;;25.77;14.43;;;;;;;0.81;75.28;98161.66;2175480;82;21165;-77
2021/01/01 01:23:23;;;;;;;34.97;17.93;;;;;;;0.86;75.17;98169.55;2175617;82;21114;-76
2021/01/01 01:26:24;;;;;;;32.57;17.30;;;;;;;0.88;75.05;98164.09;2175730;82;21170;-77
2021/01/01 01:29:25;;;;;;;35.93;17.67;;;;;;;0.93;75.15;98165.14;2175712;82;21436;-77
2021/01/01 01:32:26;;;;;;;31.80;17.40;;;;;;;0.93;75.01;98164.73;2175724;82;21109;-77
2021/01/01 01:35:27;;;;;;;31.60;17.00;;;;;;;0.93;74.83;98162.58;2175815;82;21131;-79
2021/01/01 01:38:28;;;;;;;37.73;17.27;;;;;;;0.87;74.83;98164.50;2175947;82;21405;-78
2021/01/01 01:41:30;;;;;;;36.47;18.33;;;;;;;0.82;74.89;98163.41;2175860;82;21091;-77
2021/01/01 01:44:31;;;;;;;33.30;16.60;;;;;;;0.86;75.08;98163.13;2175808;82;21082;-78
2021/01/01 01:47:32;;;;;;;42.30;18.63;;;;;;;0.91;75.15;98166.78;2175988;82;21162;-77
2021/01/01 01:50:33;;;;;;;39.07;18.33;;;;;;;0.88;74.97;98166.25;2176026;82;21200;-78
2021/01/01 01:53:34;;;;;;;40.43;20.23;;;;;;;0.88;74.91;98166.66;2175672;82;21106;-77
2021/01/01 01:56:35;;;;;;;52.73;22.10;;;;;;;0.88;74.89;98169.23;2175648;82;21091;-78
2021/01/01 01:59:38;;;;;;;46.00;20.93;;;;;;;0.89;74.97;98168.41;2175620;82;21404;-77
2021/01/01 02:02:40;;;;;;;48.53;22.13;;;;;;;0.89;74.96;98169.29;2175750;82;21111;-77
2021/01/01 02:05:41;;;;;;;42.60;20.73;;;;;;;0.93;75.25;98169.00;2175597;82;21396;-77
2021/01/01 02:08:42;;;;;;;48.47;20.57;;;;;;;0.93;75.22;98166.02;2175486;82;21182;-77
2021/01/01 02:11:43;;;;;;;44.90;21.53;;;;;;;0.93;75.20;98167.72;2175782;82;21114;-78
2021/01/01 02:14:44;;;;;;;46.37;22.77;;;;;;;0.89;75.07;98173.55;2175895;82;21416;-77
2021/01/01 02:17:45;;;;;;;47.63;22.30;;;;;;;0.87;75.30;98167.48;2175744;82;21122;-77
2021/01/01 02:20:46;;;;;;;43.53;21.27;;;;;;;0.87;75.39;98167.48;2175522;82;21420;-77
2021/01/01 02:23:47;;;;;;;44.73;22.67;;;;;;;0.86;75.35;98165.70;2175449;80;21122;-77
2021/01/01 02:26:49;;;;;;;45.77;20.43;;;;;;;0.82;75.31;98165.98;2175616;82;21411;-77
2021/01/01 02:29:50;;;;;;;46.20;21.33;;;;;;;0.79;75.01;98166.27;2175354;82;21090;-77
2021/01/01 02:32:51;;;;;;;45.77;21.43;;;;;;;0.74;75.17;98167.78;2175314;82;21149;-78
2021/01/01 02:35:52;;;;;;;41.43;20.37;;;;;;;0.79;75.36;98166.27;2175429;82;21130;-77
2021/01/01 02:38:53;;;;;;;38.67;18.87;;;;;;;0.82;75.35;98166.39;2175114;82;21102;-77
2021/01/01 02:41:54;;;;;;;39.10;18.43;;;;;;;0.80;75.25;98161.20;2175336;82;21400;-77
2021/01/01 02:44:55;;;;;;;37.33;17.37;;;;;;;0.77;75.25;98167.50;2175143;82;21115;-76
2021/01/01 02:47:56;;;;;;;46.53;18.40;;;;;;;0.73;75.06;98168.60;2175574;82;21178;-77
2021/01/01 02:50:57;;;;;;;37.53;18.57;;;;;;;0.63;75.14;98163.10;2175458;82;21151;-77
2021/01/01 02:53:58;;;;;;;41.27;16.13;;;;;;;0.63;75.28;98172.50;2175099;82;21114;-76
2021/01/01 02:56:59;;;;;;;45.03;20.33;;;;;;;0.59;75.08;98168.05;2175138;82;21123;-77
2021/01/01 03:00:01;;;;;;;37.70;16.83;;;;;;;0.52;75.27;98160.92;2175105;82;21114;-77
2021/01/01 03:03:02;;;;;;;33.77;16.87;;;;;;;0.56;75.16;98162.80;2175557;82;21122;-77
2021/01/01 03:06:03;;;;;;;39.00;19.13;;;;;;;0.56;75.05;98160.23;2175064;82;21404;-77
2021/01/01 03:09:04;;;;;;;44.00;19.20;;;;;;;0.54;75.03;98160.17;2175137;82;21173;-77
2021/01/01 03:12:05;;;;;;;38.63;19.63;;;;;;;0.58;75.09;98159.48;2175209;82;21106;-77
2021/01/01 03:15:06;;;;;;;41.43;19.00;;;;;;;0.63;75.30;98157.97;2175294;82;21127;-77
2021/01/01 03:18:10;;;;;;;40.00;20.10;;;;;;;0.65;75.42;98150.32;2175267;82;21141;-77
2021/01/01 03:21:11;;;;;;;35.73;17.53;;;;;;;0.67;75.05;98158.09;2175321;82;21146;-77
2021/01/01 03:24:12;;;;;;;38.70;18.17;;;;;;;0.68;75.09;98159.84;2173037;81;21122;-77
2021/01/01 03:27:13;;;;;;;48.40;19.97;;;;;;;0.70;75.09;98153.07;2150926;83;21131;-77
2021/01/01 03:30:14;;;;;;;42.67;19.10;;;;;;;0.75;75.37;98155.41;2152075;82;21119;-76
2021/01/01 03:33:15;;;;;;;39.83;17.97;;;;;;;0.80;75.05;98153.89;2151965;82;21500;-77
2021/01/01 03:36:16;;;;;;;37.10;17.73;;;;;;;0.85;74.77;98157.52;2151987;82;21142;-76
2021/01/01 03:39:17;;;;;;;32.33;16.53;;;;;;;0.85;74.77;98160.09;2151861;82;21115;-77
2021/01/01 03:42:18;;;;;;;32.37;17.77;;;;;;;0.88;74.67;98165.38;2152063;82;21092;-77
2021/01/01 03:45:19;;;;;;;32.30;16.23;;;;;;;0.91;74.76;98162.52;2151944;82;21084;-77
2021/01/01 03:48:20;;;;;;;36.23;18.43;;;;;;;0.93;74.31;98156.16;2151820;82;21171;-77
2021/01/01 03:51:21;;;;;;;37.20;18.70;;;;;;;0.90;74.45;98154.75;2151905;82;21115;-78
2021/01/01 03:54:23;;;;;;;39.97;17.77;;;;;;;0.88;74.60;98159.83;2152256;82;21122;-77
2021/01/01 03:57:24;;;;;;;35.30;18.60;;;;;;;0.81;74.57;98149.22;2138118;83;21341;-77
2021/01/01 04:00:25;;;;;;;40.60;17.17;;;;;;;0.77;74.67;98152.49;2152769;82;21131;-77
2021/01/01 04:03:26;;;;;;;39.30;18.80;;;;;;;0.75;74.63;98154.13;2151898;82;21091;-78
2021/01/01 04:06:29;;;;;;;29.33;16.73;;;;;;;0.66;74.28;98152.08;2138264;83;21146;-76
2021/01/01 04:09:30;;;;;;;33.87;16.37;;;;;;;0.68;74.66;98157.27;2151907;83;21103;-77
2021/01/01 04:12:31;;;;;;;31.97;16.17;;;;;;;0.70;74.63;98153.07;2151940;82;21390;-77
2021/01/01 04:15:32;;;;;;;38.77;17.60;;;;;;;0.73;74.46;98154.47;2151786;82;21115;-76
2021/01/01 04:18:34;;;;;;;31.33;17.53;;;;;;;0.75;74.43;98150.27;2152110;83;21515;-76
2021/01/01 04:21:35;;;;;;;27.50;16.10;;;;;;;0.77;74.41;98157.22;2152014;82;21392;-77
2021/01/01 04:24:36;;;;;;;32.97;15.40;;;;;;;0.77;74.33;98153.78;2156500;81;21173;-76
2021/01/01 04:27:40;;;;;;;34.17;17.13;;;;;;;0.75;74.31;98157.57;2183642;81;21177;-76
2021/01/01 04:30:41;;;;;;;35.05;18.05;;;;;;;0.74;74.43;98157.51;2175808;82;21118;-77
2021/01/01 04:33:43;;;;;;;31.93;16.43;;;;;;;0.74;74.34;98157.51;2175332;82;21236;-77
2021/01/01 04:36:45;;;;;;;30.93;16.03;;;;;;;0.77;74.20;98160.20;2175407;82;21114;-77
2021/01/01 04:39:48;;;;;;;33.60;16.70;;;;;;;0.78;74.26;98162.83;2175350;82;21134;-77
2021/01/01 04:42:49;;;;;;;45.87;17.30;;;;;;;0.82;74.10;98163.83;2175417;82;21122;-77
2021/01/01 04:45:50;;;;;;;37.87;16.10;;;;;;;0.81;74.04;98168.49;2175881;82;21118;-78
2021/01/01 04:48:51;;;;;;;32.60;16.17;;;;;;;0.79;74.15;98169.72;2175426;82;21169;-76
2021/01/01 04:51:52;;;;;;;33.33;16.53;;;;;;;0.81;73.87;98172.34;2175650;82;21141;-76
2021/01/01 04:54:53;;;;;;;36.33;17.50;;;;;;;0.74;73.88;98171.64;2175436;82;21443;-77
2021/01/01 04:57:56;;;;;;;32.73;17.40;;;;;;;0.73;74.03;98172.05;2175667;82;21356;-77
2021/01/01 05:00:57;;;;;;;45.90;19.47;;;;;;;0.76;74.20;98168.31;2175563;82;21117;-77
2021/01/01 05:03:58;;;;;;;38.63;18.27;;;;;;;0.79;74.25;98175.27;2175622;82;21146;-77
2021/01/01 05:06:59;;;;;;;35.50;17.93;;;;;;;0.75;73.95;98176.84;2175894;82;21169;-76
2021/01/01 05:10:01;;;;;;;41.00;18.60;;;;;;;0.73;74.21;98181.45;2175660;82;21090;-78
2021/01/01 05:13:02;;;;;;;40.97;18.23;;;;;;;0.73;74.08;98182.73;2175719;82;21110;-78
2021/01/01 05:16:06;;;;;;;43.80;21.17;;;;;;;0.74;73.94;98184.48;2175764;82;21114;-78
2021/01/01 05:19:07;;;;;;;43.00;19.53;;;;;;;0.75;73.96;98190.09;2175777;82;21427;-77
2021/01/01 05:22:08;;;;;;;43.00;19.90;;;;;;;0.73;73.76;98184.89;2175507;82;21110;-77
2021/01/01 05:25:09;;;;;;;41.70;19.60;;;;;;;0.67;73.91;98185.06;2172817;81;21154;-77
2021/01/01 05:28:12;;;;;;;39.63;19.53;;;;;;;0.71;74.11;98186.94;2157831;82;21172;-77
2021/01/01 05:31:14;;;;;;;43.70;19.07;;;;;;;0.75;74.04;98187.52;2152099;83;21087;-77
2021/01/01 05:34:20;;;;;;;41.43;19.37;;;;;;;0.76;74.08;98194.41;2152104;83;21382;-78
2021/01/01 05:37:20;;;;;;;46.37;18.80;;;;;;;0.78;74.13;98199.20;2152464;82;21143;-78
2021/01/01 05:40:22;;;;;;;39.17;19.57;;;;;;;0.77;74.10;98203.46;2152323;83;21195;-77
2021/01/01 05:43:23;;;;;;;40.80;19.40;;;;;;;0.76;74.03;98202.13;2152152;82;21405;-77
2021/01/01 05:46:25;;;;;;;49.87;21.53;;;;;;;0.65;73.86;98205.55;2152107;83;21143;-78
2021/01/01 05:49:28;;;;;;;37.47;19.00;;;;;;;0.61;74.52;98217.39;2152468;83;21122;-77
2021/01/01 05:52:30;;;;;;;35.57;18.77;;;;;;;0.64;74.67;98211.09;2152277;83;21111;-77
2021/01/01 05:55:31;;;;;;;40.20;18.53;;;;;;;0.65;74.51;98214.53;2152028;83;21405;-77
2021/01/01 05:58:32;;;;;;;31.83;15.50;;;;;;;0.66;74.53;98214.12;2152038;83;21119;-78
2021/01/01 06:01:33;;;;;;;36.90;17.93;;;;;;;0.52;74.27;98216.14;2152145;83;21123;-78
2021/01/01 06:04:34;;;;;;;57.60;20.03;;;;;;;0.42;74.39;98221.30;2152249;83;21115;-78
2021/01/01 06:07:35;;;;;;;50.00;17.20;;;;;;;0.37;74.25;98215.10;2151880;83;21158;-78
2021/01/01 06:10:36;;;;;;;28.03;14.43;;;;;;;0.34;74.27;98213.69;2151886;83;21139;-78
2021/01/01 06:13:37;;;;;;;34.33;17.27;;;;;;;0.20;74.21;98214.40;2151388;83;21119;-77
2021/01/01 06:16:38;;;;;;;44.43;18.27;;;;;;;0.13;74.49;98217.92;2151508;82;21118;-80
2021/01/01 06:19:39;;;;;;;29.53;15.40;;;;;;;0.16;78.63;98210.36;2151758;82;21421;-79
2021/01/01 06:22:40;;;;;;;28.23;14.50;;;;;;;2.63;79.62;98209.03;2151323;83;21123;-79
2021/01/01 06:25:41;;;;;;;28.63;14.33;;;;;;;2.22;72.92;98202.05;2150741;82;21166;-78
2021/01/01 06:28:43;;;;;;;38.93;17.03;;;;;;;2.39;79.67;98207.77;2148985;83;21159;-79
2021/01/01 06:31:46;;;;;;;36.37;15.17;;;;;;;2.68;71.08;98200.16;2172274;82;21082;-78
2021/01/01 06:34:47;;;;;;;35.03;17.03;;;;;;;1.94;70.55;98205.78;2175453;82;21107;-79
2021/01/01 06:37:48;;;;;;;32.57;15.37;;;;;;;1.36;71.29;98206.20;2175487;81;21419;-78
2021/01/01 06:40:49;;;;;;;31.03;16.47;;;;;;;1.05;72.15;98212.28;2175533;81;21103;-80
2021/01/01 06:43:51;;;;;;;33.13;17.40;;;;;;;0.82;72.63;98213.52;2175480;81;21133;-78
2021/01/01 06:46:52;;;;;;;38.63;15.70;;;;;;;0.67;73.04;98213.31;2175487;81;21177;-79
2021/01/01 06:49:53;;;;;;;40.27;19.00;;;;;;;0.56;73.16;98212.88;2175069;82;21399;-78
2021/01/01 06:52:54;;;;;;;42.47;15.67;;;;;;;0.51;73.63;98218.23;2175211;81;21099;-80
2021/01/01 06:55:55;;;;;;;45.67;16.70;;;;;;;0.49;73.69;98214.32;2175512;81;21091;-79
2021/01/01 06:58:56;;;;;;;36.80;13.73;;;;;;;0.38;73.64;98216.86;2175779;81;21134;-79
2021/01/01 07:01:57;;;;;;;34.40;15.03;;;;;;;0.28;74.03;98216.00;2175286;82;21118;-78
2021/01/01 07:04:58;;;;;;;40.63;16.20;;;;;;;0.17;74.02;98223.66;2175375;81;21098;-78
2021/01/01 07:08:02;;;;;;;42.07;15.27;;;;;;;0.12;74.34;98221.30;2175252;81;21158;-79
2021/01/01 07:11:03;;;;;;;43.77;16.40;;;;;;;0.10;74.54;98222.92;2175455;81;21118;-78
2021/01/01 07:14:07;;;;;;;37.60;16.33;;;;;;;0.08;74.64;98222.86;2176042;81;21800;-78
2021/01/01 07:17:08;;;;;;;37.88;17.55;;;;;;;0.06;74.55;98233.47;2175071;82;21216;-79
2021/01/01 07:20:09;;;;;;;38.07;18.60;;;;;;;0.03;74.67;98239.75;2175102;82;21408;-78
2021/01/01 07:23:10;;;;;;;33.03;16.90;;;;;;;0.10;74.87;98239.20;2175200;82;21134;-78
2021/01/01 07:26:12;;;;;;;43.63;19.60;;;;;;;0.17;74.99;98244.19;2175087;80;21157;-79
2021/01/01 07:29:13;;;;;;;37.27;16.97;;;;;;;0.22;75.06;98237.56;2175353;82;21178;-79
2021/01/01 07:32:14;;;;;;;40.70;19.90;;;;;;;0.26;75.04;98234.31;2175714;81;21122;-80
2021/01/01 07:35:15;;;;;;;52.43;20.47;;;;;;;0.28;75.08;98231.41;2175037;81;21134;-78
2021/01/01 07:38:16;;;;;;;54.23;21.70;;;;;;;0.28;75.07;98234.84;2175208;82;21110;-79
2021/01/01 07:41:17;;;;;;;46.77;20.23;;;;;;;0.32;75.19;98233.29;2175226;82;21094;-79
2021/01/01 07:44:19;;;;;;;43.97;20.43;;;;;;;0.37;75.15;98242.47;2175334;82;21384;-79
2021/01/01 07:47:19;;;;;;;51.10;17.93;;;;;;;0.39;75.04;98250.70;2175570;81;21150;-80
2021/01/01 07:50:21;;;;;;;33.43;17.93;;;;;;;0.39;74.80;98248.13;2176057;81;21126;-78
2021/01/01 07:53:22;;;;;;;36.00;15.63;;;;;;;0.34;74.76;98243.22;2175597;81;21106;-79
2021/01/01 07:56:23;;;;;;;37.23;17.13;;;;;;;0.36;74.97;98246.72;2175651;81;21126;-79
2021/01/01 07:59:25;;;;;;;37.93;16.60;;;;;;;0.33;74.77;98255.98;2176003;81;21383;-79
2021/01/01 08:02:26;;;;;;;39.03;16.83;;;;;;;0.29;74.53;98253.70;2175705;81;21120;-78
2021/01/01 08:05:27;;;;;;;34.43;14.70;;;;;;;0.28;74.79;98251.53;2175673;82;21138;-80
2021/01/01 08:08:29;;;;;;;39.00;19.20;;;;;;;0.29;74.58;98251.12;2175534;82;21134;-77
2021/01/01 08:11:30;;;;;;;48.23;18.60;;;;;;;0.18;74.37;98250.67;2175059;82;21256;-78
2021/01/01 08:14:31;;;;;;;42.27;19.33;;;;;;;0.14;74.50;98248.78;2175357;81;21423;-79
2021/01/01 08:17:32;;;;;;;47.10;21.37;;;;;;;0.16;74.89;98252.70;2175400;81;21102;-79
2021/01/01 08:20:35;;;;;;;41.67;19.77;;;;;;;0.22;74.96;98256.41;2175458;81;21122;-79
2021/01/01 08:23:36;;;;;;;43.93;20.13;;;;;;;0.27;75.05;98263.02;2175572;82;21114;-78
2021/01/01 08:26:37;;;;;;;41.73;18.50;;;;;;;0.33;75.00;98264.56;2175617;80;21149;-79
2021/01/01 08:29:38;;;;;;;41.30;18.60;;;;;;;0.38;74.86;98259.22;2175890;81;21372;-78
2021/01/01 08:32:39;;;;;;;50.03;20.13;;;;;;;0.32;74.50;98264.09;2175670;82;21106;-79
2021/01/01 08:35:40;;;;;;;38.43;18.73;;;;;;;0.33;74.89;98267.12;2175710;81;21114;-79
2021/01/01 08:38:42;;;;;;;32.90;16.33;;;;;;;0.42;74.99;98267.52;2175350;81;21130;-78
2021/01/01 08:41:44;;;;;;;33.20;16.63;;;;;;;0.44;74.33;98271.44;2175812;81;21118;-78
2021/01/01 08:44:45;;;;;;;32.10;15.00;;;;;;;0.41;74.49;98266.17;2175534;82;21408;-78
2021/01/01 08:47:48;;;;;;;36.53;17.30;;;;;;;0.36;74.05;98268.55;2175748;81;21185;-78
2021/01/01 08:50:49;;;;;;;38.03;16.43;;;;;;;0.29;74.25;98271.66;2175946;81;21360;-78
2021/01/01 08:53:50;;;;;;;30.20;15.70;;;;;;;0.34;74.55;98270.58;2175063;81;21114;-77
2021/01/01 08:56:51;;;;;;;33.97;17.87;;;;;;;0.33;74.43;98271.39;2175446;81;21130;-78
2021/01/01 08:59:52;;;;;;;37.27;17.30;;;;;;;0.33;74.56;98279.09;2175328;82;21360;-77
2021/01/01 09:02:56;;;;;;;35.27;18.03;;;;;;;0.34;74.27;98280.84;2175435;81;21122;-78
2021/01/01 09:05:56;;;;;;;34.80;19.73;;;;;;;0.38;74.45;98280.16;2175107;82;21424;-80
2021/01/01 09:08:57;;;;;;;37.77;18.50;;;;;;;0.39;74.45;98278.94;2175267;82;21162;-78
2021/01/01 09:11:58;;;;;;;42.67;19.07;;;;;;;0.45;74.55;98280.89;2175561;81;21416;-77
2021/01/01 09:14:59;;;;;;;30.10;15.40;;;;;;;0.51;74.55;98282.44;2175614;81;21087;-78
2021/01/01 09:18:00;;;;;;;31.10;15.13;;;;;;;0.58;74.22;98285.32;2176320;81;21127;-78
2021/01/01 09:21:02;;;;;;;28.03;15.47;;;;;;;0.54;73.81;98282.16;2175729;81;21385;-78
2021/01/01 09:24:03;;;;;;;30.33;17.27;;;;;;;0.51;73.83;98284.59;2175708;81;21141;-78
2021/01/01 09:27:04;;;;;;;40.80;16.77;;;;;;;0.55;73.76;98278.77;2177257;80;21169;-78
2021/01/01 09:30:05;;;;;;;35.93;18.27;;;;;;;0.54;73.65;98279.59;2175628;82;21078;-78
2021/01/01 09:33:06;;;;;;;34.87;18.97;;;;;;;0.59;74.00;98279.37;2175397;82;21121;-78
2021/01/01 09:36:07;;;;;;;39.93;19.37;;;;;;;0.67;74.28;98282.25;2175351;82;21113;-77
2021/01/01 09:39:08;;;;;;;31.87;16.97;;;;;;;0.70;73.97;98279.81;2175360;82;21122;-78
2021/01/01 09:42:09;;;;;;;26.93;14.00;;;;;;;0.75;73.87;98274.87;2175509;82;21087;-78
2021/01/01 09:45:10;;;;;;;24.20;14.10;;;;;;;0.81;73.27;98273.42;2175483;82;21236;-78
2021/01/01 09:48:12;;;;;;;35.53;18.03;;;;;;;0.71;73.03;98276.43;2175815;82;21150;-78
2021/01/01 09:51:13;;;;;;;33.87;18.67;;;;;;;0.66;73.59;98277.05;2175590;82;21380;-78
2021/01/01 09:54:14;;;;;;;31.87;18.30;;;;;;;0.74;73.77;98277.84;2175489;82;21086;-78
2021/01/01 09:57:15;;;;;;;32.30;17.50;;;;;;;0.83;73.87;98279.91;2175570;82;21121;-79
2021/01/01 10:00:16;;;;;;;25.93;14.20;;;;;;;0.97;73.92;98285.23;2175395;82;21400;-79
2021/01/01 10:03:17;;;;;;;26.87;15.67;;;;;;;1.00;72.96;98281.91;2175430;82;21070;-79
2021/01/01 10:06:21;;;;;;;20.63;12.40;;;;;;;1.00;72.94;98280.21;2175226;82;21141;-78
2021/01/01 10:09:23;;;;;;;29.43;14.87;;;;;;;0.97;72.52;98286.92;2175102;82;21122;-78
2021/01/01 10:12:24;;;;;;;26.07;14.40;;;;;;;0.94;72.80;98279.97;2175495;82;21118;-78
2021/01/01 10:15:25;;;;;;;24.23;13.77;;;;;;;0.97;72.56;98277.52;2175496;82;21110;-79
2021/01/01 10:18:29;;;;;;;24.33;14.17;;;;;;;0.98;72.75;98276.70;2175722;82;21106;-78
2021/01/01 10:21:30;;;;;;;28.25;16.45;;;;;;;0.87;72.53;98282.70;2175626;82;21429;-80
2021/01/01 10:24:32;;;;;;;21.43;11.63;;;;;;;0.85;73.20;98285.58;2175398;82;21130;-78
2021/01/01 10:27:33;;;;;;;27.17;14.80;;;;;;;0.88;72.80;98286.14;2175547;80;21153;-78
2021/01/01 10:30:34;;;;;;;26.70;15.67;;;;;;;0.86;72.88;98283.48;2175491;82;21360;-79
2021/01/01 10:33:35;;;;;;;29.43;15.67;;;;;;;0.88;72.91;98276.75;2175521;82;21083;-78
2021/01/01 10:36:36;;;;;;;25.57;13.03;;;;;;;0.92;73.03;98278.62;2175480;82;21118;-77
2021/01/01 10:39:37;;;;;;;33.57;16.63;;;;;;;0.92;73.07;98268.34;2175425;82;21258;-78
2021/01/01 10:42:38;;;;;;;31.73;17.17;;;;;;;0.89;73.13;98272.07;2175483;82;21401;-78
2021/01/01 10:45:39;;;;;;;29.30;15.50;;;;;;;0.95;73.28;98262.45;2175305;82;21126;-79
2021/01/01 10:48:40;;;;;;;28.33;13.73;;;;;;;0.99;73.12;98267.30;2175442;82;21119;-79
2021/01/01 10:51:41;;;;;;;32.70;18.07;;;;;;;1.01;73.09;98273.38;2175406;82;21404;-77
2021/01/01 10:54:43;;;;;;;26.37;15.23;;;;;;;1.09;73.30;98266.44;2175300;82;21135;-78
2021/01/01 10:57:44;;;;;;;34.77;17.57;;;;;;;1.15;73.02;98276.09;2175445;82;21299;-78
2021/01/01 11:00:45;;;;;;;26.73;15.43;;;;;;;1.16;73.10;98276.55;2175471;82;21380;-78
2021/01/01 11:03:47;;;;;;;26.03;13.90;;;;;;;1.23;73.17;98275.57;2175339;82;21102;-77
2021/01/01 11:06:51;;;;;;;30.13;16.67;;;;;;;1.26;72.93;98276.97;2175383;82;21385;-77
2021/01/01 11:09:52;;;;;;;31.67;16.10;;;;;;;1.26;72.77;98274.41;2175185;82;21123;-77
2021/01/01 11:12:56;;;;;;;33.07;16.37;;;;;;;1.32;72.87;98271.61;2175208;82;21087;-78
2021/01/01 12:22:26;;;;;;;32.40;18.97;;;;;;;1.44;72.20;98273.36;2025289;88;21141;-77
2021/01/01 12:25:27;;;;;;;35.15;18.60;;;;;;;1.48;72.35;98270.97;2025324;88;21311;-77
2021/01/01 12:28:28;;;;;;;36.03;19.10;;;;;;;1.48;72.33;98275.23;2035621;87;21555;-78
2021/01/01 12:31:30;;;;;;;26.63;15.30;;;;;;;1.49;72.57;98279.55;2039537;87;21287;-77
2021/01/01 12:34:31;;;;;;;23.70;14.27;;;;;;;1.52;72.35;98292.13;2039431;87;21295;-78
2021/01/01 12:37:32;;;;;;;28.07;15.37;;;;;;;1.44;72.31;98281.95;2039708;87;21292;-77
2021/01/01 12:40:33;;;;;;;31.07;18.17;;;;;;;1.37;72.54;98284.23;2164940;81;21138;-77
2021/01/01 12:43:34;;;;;;;27.27;16.40;;;;;;;1.31;72.64;98285.27;2175270;82;21416;-77
2021/01/01 12:46:35;;;;;;;28.30;16.07;;;;;;;1.27;72.77;98286.85;2175291;82;21142;-78
2021/01/01 12:49:36;;;;;;;39.33;16.87;;;;;;;1.20;72.74;98291.28;2175268;82;21426;-77
2021/01/01 12:52:37;;;;;;;35.07;19.20;;;;;;;1.12;72.80;98290.11;2175440;82;21383;-77
2021/01/01 12:55:39;;;;;;;35.33;18.80;;;;;;;1.11;73.19;98291.80;2175315;82;21122;-78
2021/01/01 12:58:40;;;;;;;36.37;20.00;;;;;;;1.11;73.39;98296.06;2175411;82;21122;-77
2021/01/01 13:01:41;;;;;;;39.70;22.83;;;;;;;1.16;73.56;98299.69;2175518;82;21324;-77
2021/01/01 13:04:42;;;;;;;41.10;22.30;;;;;;;1.19;73.54;98294.27;2175291;82;21238;-79
2021/01/01 13:07:46;;;;;;;36.57;19.83;;;;;;;1.23;73.65;98300.00;2175318;82;21178;-77
2021/01/01 13:10:47;;;;;;;42.33;21.70;;;;;;;1.27;73.44;98294.16;2175622;82;21123;-77
2021/01/01 13:13:49;;;;;;;30.43;18.47;;;;;;;1.26;73.48;98294.09;2175437;82;21114;-78
2021/01/01 13:16:50;;;;;;;33.57;18.97;;;;;;;1.30;73.40;98299.83;2175363;82;21118;-78
2021/01/01 13:19:51;;;;;;;33.17;19.23;;;;;;;1.25;73.24;98298.36;2175482;82;21135;-79
2021/01/01 13:22:52;;;;;;;34.63;18.47;;;;;;;1.20;73.20;98297.30;2175481;82;21142;-78
2021/01/01 13:25:53;;;;;;;33.80;19.87;;;;;;;1.11;73.27;98294.37;2175412;82;21122;-78
2021/01/01 13:28:54;;;;;;;33.10;18.73;;;;;;;1.09;73.50;98298.57;2157326;81;21143;-77
2021/01/01 13:31:55;;;;;;;32.73;18.40;;;;;;;1.08;73.66;98298.10;2152102;82;21127;-78
2021/01/01 13:34:56;;;;;;;36.73;21.00;;;;;;;1.00;73.46;98294.75;2152133;82;21139;-77
2021/01/01 13:37:57;;;;;;;34.83;20.10;;;;;;;0.93;73.71;98302.63;2152524;82;21119;-78
2021/01/01 13:40:58;;;;;;;41.80;21.13;;;;;;;0.91;73.95;98305.54;2152196;82;21400;-78
2021/01/01 13:44:00;;;;;;;41.10;23.83;;;;;;;0.88;73.99;98294.73;2152159;82;21131;-77
2021/01/01 13:47:01;;;;;;;39.93;21.70;;;;;;;0.86;73.96;98297.61;2151970;83;21119;-77
2021/01/01 13:50:02;;;;;;;37.60;19.53;;;;;;;0.77;73.95;98289.94;2152284;82;21095;-78
2021/01/01 13:53:03;;;;;;;38.37;23.13;;;;;;;0.69;74.19;98294.76;2152481;82;21119;-78
2021/01/01 13:56:04;;;;;;;31.87;17.73;;;;;;;0.64;74.30;98307.41;2152113;82;21238;-78
2021/01/01 13:59:05;;;;;;;37.77;20.73;;;;;;;0.59;74.30;98299.04;2152307;82;21099;-77
2021/01/01 14:02:07;;;;;;;44.87;24.73;;;;;;;0.50;74.34;98302.51;2152242;82;21134;-77
2021/01/01 14:05:08;;;;;;;46.10;22.90;;;;;;;0.44;74.51;98295.42;2152246;82;21131;-77
2021/01/01 14:08:10;;;;;;;44.57;24.20;;;;;;;0.43;74.71;98298.80;2152164;82;21135;-77
2021/01/01 14:11:11;;;;;;;43.43;22.10;;;;;;;0.44;74.65;98294.55;2152053;82;21143;-77
2021/01/01 14:14:12;;;;;;;47.47;25.53;;;;;;;0.41;74.56;98291.44;2138538;83;21114;-77
2021/01/01 14:17:13;;;;;;;47.47;24.70;;;;;;;0.33;74.71;98297.94;2136635;83;21095;-78
2021/01/01 14:20:14;;;;;;;36.23;20.63;;;;;;;0.32;74.72;98311.59;2151238;83;21131;-77
2021/01/01 14:23:15;;;;;;;33.47;18.60;;;;;;;0.27;74.58;98310.51;2152247;82;21095;-79
2021/01/01 14:26:16;;;;;;;38.80;21.63;;;;;;;0.19;74.95;98311.46;2136567;83;21115;-78
2021/01/01 14:29:17;;;;;;;41.73;21.80;;;;;;;0.12;74.65;98312.41;2170379;82;21103;-78
2021/01/01 14:32:18;;;;;;;42.17;22.10;;;;;;;0.08;74.96;98308.83;2175587;82;21114;-78
2021/01/01 14:35:19;;;;;;;44.13;23.33;;;;;;;0.10;75.00;98312.75;2175274;82;21122;-78
2021/01/01 14:38:23;;;;;;;39.37;21.80;;;;;;;0.05;75.15;98309.10;2175426;82;21129;-77
2021/01/01 14:41:24;;;;;;;47.43;24.47;;;;;;;0.04;75.16;98321.45;2175221;82;21122;-78
2021/01/01 14:44:25;;;;;;;54.27;27.53;;;;;;;-0.06;75.13;98325.27;2168163;82;21130;-77
2021/01/01 14:47:26;;;;;;;45.80;21.30;;;;;;;-0.11;75.28;98327.62;2165250;82;21146;-77
2021/01/01 14:50:30;;;;;;;44.10;24.17;;;;;;;-0.13;75.45;98323.23;2165220;82;21412;-77
2021/01/01 14:53:31;;;;;;;53.23;26.13;;;;;;;-0.15;75.49;98326.14;2165434;82;21125;-77
2021/01/01 14:56:32;;;;;;;42.83;21.37;;;;;;;-0.19;75.57;98330.25;2164811;82;21130;-77
2021/01/01 14:59:33;;;;;;;37.60;21.53;;;;;;;-0.17;75.76;98332.48;2165473;82;21429;-80
2021/01/01 15:02:34;;;;;;;55.97;29.00;;;;;;;-0.21;75.67;98329.70;2165430;82;21448;-77
2021/01/01 15:05:35;;;;;;;62.93;29.43;;;;;;;-0.27;75.75;98335.44;2165254;82;21150;-80
2021/01/01 15:08:36;;;;;;;53.23;27.53;;;;;;;-0.35;75.74;98331.23;2165352;82;21135;-79